Terminal Aerodrome Forecast
Issued by NWS North Platte, NE

Home | Current Version | Previous Version | Text Only | Print | Product List | Glossary Off
Versions: 1 2 3 4 5 6 7 8 9 10 11 12 13 14

000
FTUS43 KLBF 070520
TAFVTN
TAF
KVTN 070520Z 0706/0806 29015G21KT P6SM SCT250
     FM071500 30027G35KT P6SM SCT080
     FM071800 30034G43KT P6SM VCSH SCT050 BKN070
     FM080200 31027G37KT P6SM SCT050=

USA.gov is the U.S. government's official web portal to all federal, state and local government web resources and services.